Time;durP1;ratioP1;P1;durP2;ratioP2;P2;SDS_P1;SDS_P2;PMS_P1;PMS_P2;Temp;Humidity;BMP_temperature;BMP_pressure;BME280_temperature;BME280_humidity;BME280_pressure;Samples;Min_cycle;Max_cycle;Signal;HPM_P1;HPM_P2
2021/08/28 00:02:19;;;;;;;5.85;3.72;;;;;;;11.76;97.22;96710.38;5018985;28;20041;-61
2021/08/28 00:04:45;;;;;;;4.60;3.28;;;;;;;11.60;97.33;96708.59;5020636;28;20049;-64
2021/08/28 00:07:10;;;;;;;5.78;3.17;;;;;;;11.40;98.16;96705.22;5011523;28;20088;-65
2021/08/28 00:09:36;;;;;;;7.25;3.67;;;;;;;11.29;99.03;96704.28;5008159;28;20050;-64
2021/08/28 00:12:01;;;;;;;6.07;3.70;;;;;;;11.17;99.59;96699.81;5011555;28;20052;-63
2021/08/28 00:14:27;;;;;;;8.10;3.65;;;;;;;11.01;100.00;96696.44;5015859;28;20049;-63
2021/08/28 00:16:52;;;;;;;7.18;3.88;;;;;;;11.03;100.00;96705.88;5029661;28;20045;-65
2021/08/28 00:19:18;;;;;;;7.25;3.95;;;;;;;11.04;100.00;96701.97;5011957;28;20507;-61
2021/08/28 00:21:43;;;;;;;5.45;3.55;;;;;;;11.27;100.00;96692.88;5019386;28;20037;-63
2021/08/28 00:24:09;;;;;;;4.93;3.33;;;;;;;11.26;100.00;96700.31;5020280;28;20605;-65
2021/08/28 00:26:34;;;;;;;5.78;3.58;;;;;;;11.38;100.00;96688.34;5014746;28;20133;-64
2021/08/28 00:29:00;;;;;;;5.43;3.58;;;;;;;11.25;99.30;96686.97;5005728;28;20042;-60
2021/08/28 00:31:25;;;;;;;8.93;4.28;;;;;;;11.07;100.00;96684.81;4994553;28;20042;-62
2021/08/28 00:33:50;;;;;;;7.70;4.00;;;;;;;10.99;100.00;96683.09;4985447;28;20046;-61
2021/08/28 00:36:16;;;;;;;7.53;4.50;;;;;;;10.94;100.00;96674.41;4978946;28;20049;-62
2021/08/28 00:38:41;;;;;;;5.38;3.63;;;;;;;10.89;100.00;96678.25;5007736;28;20129;-63
2021/08/28 00:41:07;;;;;;;7.80;3.90;;;;;;;10.96;100.00;96672.88;5008835;28;20172;-64
2021/08/28 00:43:32;;;;;;;8.13;3.90;;;;;;;11.06;100.00;96669.50;5013478;28;20041;-63
2021/08/28 00:45:58;;;;;;;7.38;3.70;;;;;;;11.31;100.00;96681.97;5009847;28;20045;-64
2021/08/28 00:48:23;;;;;;;9.45;3.88;;;;;;;11.49;100.00;96677.50;5010455;28;20068;-65
2021/08/28 00:50:49;;;;;;;6.82;3.40;;;;;;;11.65;99.22;96680.06;5021726;28;20440;-63
2021/08/28 00:53:16;;;;;;;7.50;3.95;;;;;;;11.72;98.59;96676.59;5015179;28;20042;-63
2021/08/28 00:55:46;;;;;;;4.80;3.40;;;;;;;11.76;98.39;96677.44;5006002;28;20038;-64
2021/08/28 00:58:12;;;;;;;6.85;3.47;;;;;;;11.70;98.77;96674.22;5002552;28;20045;-63
2021/08/28 01:00:44;;;;;;;5.68;3.45;;;;;;;11.69;98.49;96683.63;5005150;28;20046;-65
2021/08/28 01:03:11;;;;;;;6.85;4.15;;;;;;;11.81;97.08;96682.56;5006706;28;20038;-65
2021/08/28 01:06:02;;;;;;;6.68;3.80;;;;;;;11.86;96.65;96688.50;5000955;28;20499;-65
2021/08/28 01:08:46;;;;;;;7.40;3.70;;;;;;;11.89;96.12;96680.72;4979039;28;20038;-65
2021/08/28 01:11:35;;;;;;;6.05;3.55;;;;;;;11.76;96.72;96677.44;4977566;28;20042;-67
2021/08/28 01:14:13;;;;;;;12.77;4.85;;;;;;;11.57;96.57;96668.19;4985999;28;20133;-65
2021/08/28 01:16:42;;;;;;;7.35;3.70;;;;;;;11.52;97.44;96673.22;5007904;28;20041;-64
2021/08/28 01:19:15;;;;;;;6.32;4.00;;;;;;;11.54;98.24;96671.69;5015683;28;20034;-65
2021/08/28 01:21:41;;;;;;;5.70;3.33;;;;;;;11.46;98.15;96672.75;5013656;28;20045;-65
2021/08/28 01:24:07;;;;;;;7.05;3.80;;;;;;;11.44;98.63;96670.38;4997596;28;20461;-65
2021/08/28 01:26:48;;;;;;;5.63;3.58;;;;;;;11.53;98.91;96677.56;5001975;28;20062;-64
2021/08/28 01:29:18;;;;;;;6.75;3.72;;;;;;;11.62;99.26;96667.09;4997645;28;20510;-63
2021/08/28 01:31:46;;;;;;;6.07;3.63;;;;;;;11.67;98.80;96669.50;5003131;28;20041;-65
2021/08/28 01:34:12;;;;;;;5.18;3.83;;;;;;;11.57;97.58;96667.41;5004541;28;20131;-64
2021/08/28 01:36:38;;;;;;;6.22;3.60;;;;;;;11.66;98.40;96676.13;5022795;28;20044;-64
2021/08/28 01:39:04;;;;;;;5.57;3.58;;;;;;;11.84;96.98;96679.09;5018509;28;20041;-66
2021/08/28 01:41:30;;;;;;;5.70;3.25;;;;;;;11.86;96.58;96677.53;5004570;28;20402;-63
2021/08/28 01:43:58;;;;;;;7.82;3.80;;;;;;;11.90;96.34;96680.34;4989794;28;20056;-64
2021/08/28 01:46:24;;;;;;;6.47;3.38;;;;;;;11.83;96.45;96672.81;4996873;28;20101;-64
2021/08/28 01:48:50;;;;;;;4.75;3.45;;;;;;;11.67;96.72;96664.00;5002526;28;20041;-65
2021/08/28 01:51:15;;;;;;;5.50;3.60;;;;;;;11.70;97.67;96676.19;4997904;28;20104;-65
2021/08/28 01:53:41;;;;;;;6.72;3.47;;;;;;;11.78;97.52;96678.63;5002080;28;20486;-65
2021/08/28 01:56:07;;;;;;;7.97;3.47;;;;;;;11.81;97.29;96680.63;4997061;28;20046;-64
2021/08/28 01:58:33;;;;;;;9.30;3.80;;;;;;;11.96;96.48;96686.31;5002135;28;20057;-63
2021/08/28 02:00:59;;;;;;;5.32;3.55;;;;;;;11.98;96.23;96686.72;5002489;28;20068;-64
2021/08/28 02:03:24;;;;;;;6.25;3.47;;;;;;;11.92;96.36;96690.94;4996576;28;20045;-65
2021/08/28 02:05:57;;;;;;;8.88;3.55;;;;;;;11.82;96.64;96684.16;4985180;28;20050;-63
2021/08/28 02:08:31;;;;;;;7.28;3.75;;;;;;;11.78;97.43;96681.38;4996414;28;20720;-63
2021/08/28 02:11:08;;;;;;;5.88;3.75;;;;;;;11.73;97.49;96678.97;5001401;28;20042;-64
2021/08/28 02:13:42;;;;;;;6.35;3.42;;;;;;;11.63;97.61;96677.69;4989904;28;20133;-65
2021/08/28 02:16:11;;;;;;;6.07;3.88;;;;;;;11.61;98.53;96692.91;4994253;28;20045;-65
2021/08/28 02:18:54;;;;;;;6.72;3.72;;;;;;;11.60;98.59;96683.13;5013668;28;20393;-64
2021/08/28 02:21:23;;;;;;;7.72;3.63;;;;;;;11.58;98.43;96685.47;5005504;28;20066;-65
2021/08/28 02:23:52;;;;;;;6.38;3.63;;;;;;;11.45;99.31;96682.94;5004027;28;20034;-65
2021/08/28 02:26:20;;;;;;;5.07;3.22;;;;;;;11.43;99.68;96685.28;4986584;28;20041;-65
2021/08/28 02:28:50;;;;;;;8.43;4.22;;;;;;;11.60;100.00;96686.66;4997547;28;20042;-63
2021/08/28 02:31:18;;;;;;;6.82;4.10;;;;;;;11.73;99.21;96681.69;4978722;28;20042;-66
2021/08/28 02:33:46;;;;;;;7.70;3.80;;;;;;;11.82;98.47;96681.41;4997002;28;20097;-67
2021/08/28 02:36:14;;;;;;;8.15;4.15;;;;;;;11.83;97.28;96674.78;5005490;28;20045;-65
2021/08/28 02:38:42;;;;;;;6.85;3.75;;;;;;;11.74;97.26;96671.50;5026421;28;20038;-65
2021/08/28 02:41:08;;;;;;;7.65;3.85;;;;;;;11.72;98.06;96673.84;5019658;28;20041;-64
2021/08/28 02:43:35;;;;;;;6.65;4.10;;;;;;;11.74;98.07;96677.81;5026330;28;20045;-66
2021/08/28 02:46:01;;;;;;;6.45;3.55;;;;;;;11.83;98.17;96677.50;5006416;28;20042;-66
2021/08/28 02:48:29;;;;;;;4.82;3.28;;;;;;;11.98;97.32;96675.75;4991037;28;20037;-66
2021/08/28 02:50:59;;;;;;;6.50;4.15;;;;;;;11.94;97.08;96670.22;5010666;28;20085;-66
2021/08/28 02:53:26;;;;;;;6.05;3.28;;;;;;;11.85;96.93;96673.22;5007225;28;20092;-64
2021/08/28 02:55:53;;;;;;;6.97;3.70;;;;;;;11.93;97.27;96665.88;4986208;28;20042;-64
2021/08/28 02:58:21;;;;;;;5.70;3.42;;;;;;;11.99;96.76;96669.88;4997097;28;20042;-66
2021/08/28 03:00:47;;;;;;;5.72;3.40;;;;;;;12.00;96.90;96665.16;4997562;28;20045;-65
2021/08/28 03:03:14;;;;;;;8.77;3.60;;;;;;;11.93;96.53;96662.34;5002128;28;20403;-65
2021/08/28 03:05:41;;;;;;;6.97;3.63;;;;;;;11.84;96.65;96655.16;4986092;28;20041;-66
2021/08/28 03:08:07;;;;;;;6.50;3.55;;;;;;;11.82;97.07;96665.72;5004178;28;20099;-65
2021/08/28 03:10:33;;;;;;;6.97;4.10;;;;;;;11.83;97.41;96667.31;5006225;28;20417;-64
2021/08/28 03:12:59;;;;;;;11.65;3.78;;;;;;;11.91;97.49;96659.19;5003697;28;20124;-65
2021/08/28 03:15:25;;;;;;;8.63;3.50;;;;;;;11.90;96.96;96654.84;5004040;28;20049;-64
2021/08/28 03:17:51;;;;;;;6.65;3.70;;;;;;;11.92;97.06;96655.28;4998733;28;20053;-65
2021/08/28 03:20:18;;;;;;;7.22;3.22;;;;;;;12.08;96.47;96655.81;5011288;28;20064;-65
2021/08/28 03:22:45;;;;;;;8.45;3.45;;;;;;;12.16;95.47;96653.97;5014641;28;20041;-65
2021/08/28 03:25:12;;;;;;;7.55;3.78;;;;;;;12.18;94.47;96646.91;4998667;28;20045;-66
2021/08/28 03:27:40;;;;;;;6.93;3.60;;;;;;;12.17;94.71;96644.53;5009395;28;20132;-64
2021/08/28 03:30:10;;;;;;;5.68;3.58;;;;;;;12.20;94.36;96644.56;5005045;28;20052;-66
2021/08/28 03:32:36;;;;;;;8.40;3.72;;;;;;;12.27;94.24;96651.31;4998385;28;20213;-65
2021/08/28 03:35:03;;;;;;;10.68;3.45;;;;;;;12.21;93.58;96654.41;4989397;28;20128;-66
2021/08/28 03:37:29;;;;;;;7.95;3.55;;;;;;;12.15;94.19;96639.41;5010943;28;20038;-65
2021/08/28 03:39:55;;;;;;;5.97;3.75;;;;;;;12.09;94.79;96649.19;5011691;28;20128;-65
2021/08/28 03:42:21;;;;;;;8.98;3.60;;;;;;;12.07;95.25;96650.72;5007628;28;20041;-62
2021/08/28 03:44:46;;;;;;;5.35;3.33;;;;;;;12.03;95.40;96654.22;5009194;28;20044;-64
2021/08/28 03:47:14;;;;;;;5.82;3.42;;;;;;;12.08;95.27;96649.56;5001743;28;20059;-64
2021/08/28 03:49:39;;;;;;;8.00;3.97;;;;;;;11.98;95.19;96649.06;5015552;28;20046;-62
2021/08/28 03:52:05;;;;;;;7.47;4.15;;;;;;;11.91;95.66;96650.97;5010487;28;20071;-64
2021/08/28 03:54:31;;;;;;;5.28;3.33;;;;;;;12.00;95.93;96648.69;5024149;28;20099;-65
2021/08/28 03:56:56;;;;;;;6.68;3.63;;;;;;;12.01;95.87;96650.25;5006498;28;20182;-65
2021/08/28 03:59:22;;;;;;;6.75;3.50;;;;;;;12.04;95.90;96655.00;5002272;28;20845;-65
2021/08/28 04:01:47;;;;;;;9.90;3.85;;;;;;;12.11;95.34;96648.81;5011281;28;20068;-63
2021/08/28 04:04:13;;;;;;;5.20;3.72;;;;;;;12.26;94.48;96645.00;5003923;28;20494;-65
2021/08/28 04:06:39;;;;;;;6.75;3.03;;;;;;;12.34;93.30;96654.91;5028916;22;20089;-62
2021/08/28 04:09:04;;;;;;;6.68;3.58;;;;;;;12.42;93.16;96653.81;4970879;28;20065;-61
2021/08/28 04:11:30;;;;;;;6.00;3.55;;;;;;;12.36;92.76;96655.31;5001343;28;20188;-62
2021/08/28 04:13:55;;;;;;;8.15;3.75;;;;;;;12.34;93.28;96654.91;4983685;28;20450;-61
2021/08/28 04:16:20;;;;;;;5.22;3.70;;;;;;;12.34;93.83;96654.13;5006064;28;20447;-62
2021/08/28 04:18:46;;;;;;;5.32;3.25;;;;;;;12.33;93.83;96653.31;5006183;28;20053;-62
2021/08/28 04:21:11;;;;;;;5.65;3.30;;;;;;;12.33;93.48;96655.28;4996948;28;20434;-62
2021/08/28 04:23:37;;;;;;;7.78;3.90;;;;;;;12.21;93.57;96650.88;4994577;28;20051;-61
2021/08/28 04:26:02;;;;;;;7.95;3.67;;;;;;;12.19;94.01;96650.44;5004983;28;20052;-61
2021/08/28 04:28:28;;;;;;;6.15;3.35;;;;;;;12.13;93.96;96650.00;5007819;28;20141;-62
2021/08/28 04:30:53;;;;;;;5.47;3.22;;;;;;;12.20;94.39;96652.81;5012550;28;20546;-62
2021/08/28 04:33:18;;;;;;;6.03;3.25;;;;;;;12.27;94.17;96651.31;5004190;28;20053;-61
2021/08/28 04:35:44;;;;;;;5.28;3.42;;;;;;;12.35;93.97;96652.94;5011003;28;20046;-62
2021/08/28 04:38:09;;;;;;;6.80;3.75;;;;;;;12.39;93.39;96648.28;5006197;28;20441;-62
2021/08/28 04:40:36;;;;;;;5.07;3.30;;;;;;;12.32;93.53;96653.72;4993432;28;20128;-62
2021/08/28 04:43:02;;;;;;;6.15;3.67;;;;;;;12.25;93.65;96657.16;5000032;28;21000;-62
2021/08/28 04:45:27;;;;;;;7.00;4.38;;;;;;;12.35;94.14;96656.50;5005006;28;20060;-62
2021/08/28 04:47:53;;;;;;;8.32;3.55;;;;;;;12.35;93.47;96650.19;5010582;28;20056;-63
2021/08/28 04:50:18;;;;;;;5.43;3.13;;;;;;;12.19;93.31;96648.50;5005742;28;20053;-63
2021/08/28 04:52:44;;;;;;;5.45;3.67;;;;;;;11.96;95.70;96659.63;5010737;28;20494;-63
2021/08/28 04:55:09;;;;;;;8.48;4.00;;;;;;;11.89;95.97;96662.28;5008322;28;20037;-63
2021/08/28 04:57:35;;;;;;;6.47;4.55;;;;;;;12.03;96.16;96658.94;5022178;28;20076;-63
2021/08/28 05:00:00;;;;;;;5.90;3.35;;;;;;;12.16;95.65;96660.22;5000674;28;20475;-63
2021/08/28 05:02:25;;;;;;;5.80;3.80;;;;;;;12.18;95.28;96657.09;5005610;28;20050;-63
2021/08/28 05:04:51;;;;;;;5.68;3.90;;;;;;;12.25;96.21;96654.44;5004962;28;20042;-61
2021/08/28 05:07:17;;;;;;;6.65;3.75;;;;;;;12.23;96.03;96651.28;4999552;28;20042;-62
2021/08/28 05:09:42;;;;;;;6.78;3.50;;;;;;;12.24;95.40;96652.84;5003929;28;20140;-62
2021/08/28 05:12:08;;;;;;;5.97;3.50;;;;;;;12.30;96.01;96656.03;5007140;28;20132;-62
2021/08/28 05:14:38;;;;;;;9.63;3.35;;;;;;;12.36;94.99;96660.00;5007719;28;20057;-61
2021/08/28 05:17:04;;;;;;;;;;;;;;;12.42;94.82;96667.53;5009235;28;20493;-62
2021/08/28 05:19:30;;;;;;;5.95;3.75;;;;;;;12.54;93.45;96668.41;5000819;28;19925;-61
2021/08/28 05:21:55;;;;;;;8.93;3.75;;;;;;;12.46;93.10;96666.75;5001365;28;20048;-61
2021/08/28 05:24:21;;;;;;;6.60;3.25;;;;;;;12.23;95.41;96671.28;5000140;28;20045;-60
2021/08/28 05:26:46;;;;;;;5.55;3.60;;;;;;;11.85;99.16;96672.44;5012618;28;20069;-62
2021/08/28 05:29:12;;;;;;;8.00;4.70;;;;;;;11.71;100.00;96672.28;4995623;28;20133;-62
2021/08/28 05:31:37;;;;;;;6.70;3.65;;;;;;;11.74;100.00;96672.31;4988417;28;20041;-62
2021/08/28 05:34:02;;;;;;;11.70;3.72;;;;;;;11.95;100.00;96679.22;4996413;28;20050;-62
2021/08/28 05:36:28;;;;;;;5.30;3.65;;;;;;;12.10;99.88;96678.22;4992686;28;20057;-61
2021/08/28 05:38:54;;;;;;;8.65;3.97;;;;;;;12.24;98.82;96681.09;5002981;28;20049;-62
2021/08/28 05:41:20;;;;;;;7.85;4.35;;;;;;;12.26;97.97;96677.97;5003966;28;20042;-61
2021/08/28 05:43:45;;;;;;;14.43;4.93;;;;;;;12.41;96.66;96670.66;5010517;28;20045;-63
2021/08/28 05:46:11;;;;;;;6.13;3.65;;;;;;;12.43;96.72;96676.56;5007902;28;20076;-62
2021/08/28 05:48:36;;;;;;;5.32;3.35;;;;;;;12.58;96.37;96678.25;5021406;28;20064;-64
2021/08/28 05:51:02;;;;;;;4.32;3.38;;;;;;;12.58;96.12;96674.72;5017560;28;20523;-61
2021/08/28 05:53:27;;;;;;;5.63;3.53;;;;;;;12.60;95.39;96673.19;5001376;28;20050;-65
2021/08/28 05:55:52;;;;;;;8.45;3.42;;;;;;;12.68;95.47;96684.22;5001343;28;20050;-63
2021/08/28 05:58:18;;;;;;;8.40;3.97;;;;;;;12.76;95.09;96681.13;4997399;28;20042;-64
2021/08/28 06:00:43;;;;;;;9.20;4.40;;;;;;;12.83;94.34;96680.41;5002733;28;20037;-63
2021/08/28 06:03:09;;;;;;;5.78;3.50;;;;;;;12.88;94.03;96685.53;5006671;28;20073;-63
2021/08/28 06:05:34;;;;;;;6.97;3.80;;;;;;;12.91;93.67;96672.97;5013286;28;20068;-63
2021/08/28 06:07:59;;;;;;;5.03;3.13;;;;;;;12.96;93.40;96678.94;5020779;28;20053;-63
2021/08/28 06:10:25;;;;;;;6.47;3.60;;;;;;;12.96;93.30;96686.38;4988876;28;20085;-63
2021/08/28 06:12:50;;;;;;;6.85;3.72;;;;;;;12.94;92.98;96685.97;5000821;28;20136;-62
2021/08/28 06:15:16;;;;;;;7.50;3.50;;;;;;;12.87;93.03;96678.44;5002812;28;20134;-63
2021/08/28 06:17:41;;;;;;;8.57;3.65;;;;;;;12.95;92.99;96676.56;5006749;28;20045;-63
2021/08/28 06:20:08;;;;;;;7.65;3.92;;;;;;;13.05;93.05;96680.53;5003757;28;20038;-63
2021/08/28 06:22:33;;;;;;;5.90;3.63;;;;;;;13.13;92.25;96662.94;5019709;28;20034;-63
2021/08/28 06:24:58;;;;;;;8.15;3.80;;;;;;;13.15;91.98;96668.81;5021021;28;20127;-63
2021/08/28 06:27:24;;;;;;;6.53;3.65;;;;;;;13.24;91.61;96677.50;5013622;28;20128;-61
2021/08/28 06:29:49;;;;;;;8.23;4.07;;;;;;;13.29;90.81;96671.66;4999996;28;20095;-61
2021/08/28 06:32:15;;;;;;;7.75;3.58;;;;;;;13.39;90.23;96670.94;4997434;28;20045;-63
2021/08/28 06:34:40;;;;;;;4.90;3.50;;;;;;;13.54;89.63;96669.06;5009376;28;20038;-64
2021/08/28 06:37:05;;;;;;;8.13;3.08;;;;;;;13.62;88.51;96674.59;4988296;28;20046;-62
2021/08/28 06:39:31;;;;;;;5.57;3.78;;;;;;;13.66;87.83;96673.41;5008861;28;20068;-63
2021/08/28 06:41:56;;;;;;;5.82;3.17;;;;;;;13.70;88.67;96668.72;5012692;28;20493;-63
2021/08/28 06:44:23;;;;;;;5.32;3.40;;;;;;;13.75;88.62;96673.81;5002587;28;20966;-63
2021/08/28 06:46:49;;;;;;;8.07;3.80;;;;;;;13.87;88.14;96683.72;5001089;28;20103;-63
2021/08/28 06:49:14;;;;;;;6.80;4.03;;;;;;;13.87;87.22;96672.69;5000254;28;20836;-63
2021/08/28 06:51:40;;;;;;;5.35;3.40;;;;;;;13.95;86.88;96676.25;5011598;28;20083;-62
2021/08/28 06:54:05;;;;;;;5.57;3.25;;;;;;;13.94;87.32;96680.19;5006242;28;20075;-63
2021/08/28 06:56:30;;;;;;;9.00;3.40;;;;;;;14.17;86.13;96679.06;5019727;28;20068;-63
2021/08/28 06:58:56;;;;;;;5.32;3.33;;;;;;;14.36;84.91;96683.44;5008648;28;20072;-64
2021/08/28 07:01:21;;;;;;;5.07;3.10;;;;;;;14.11;86.07;96678.66;5003199;28;20783;-63
2021/08/28 07:03:47;;;;;;;7.82;3.33;;;;;;;14.43;84.53;96686.97;5003611;28;20071;-61
2021/08/28 07:06:12;;;;;;;6.22;3.95;;;;;;;14.57;83.11;96683.44;5005324;28;20073;-62
2021/08/28 07:08:38;;;;;;;6.60;3.15;;;;;;;14.64;83.43;96685.41;5007347;28;20050;-62
2021/08/28 07:11:04;;;;;;;5.65;3.00;;;;;;;14.60;83.12;96685.41;5002569;28;20046;-63
2021/08/28 07:13:29;;;;;;;5.93;3.22;;;;;;;14.58;83.42;96685.03;5007245;28;20073;-63
2021/08/28 07:15:55;;;;;;;7.18;3.40;;;;;;;14.66;83.64;96688.59;5005915;28;20135;-63
2021/08/28 07:18:20;;;;;;;5.40;2.63;;;;;;;14.78;82.45;96684.66;5006736;28;20049;-64
2021/08/28 07:20:45;;;;;;;9.90;3.10;;;;;;;14.80;82.91;96685.84;5009742;28;20510;-62
2021/08/28 07:23:12;;;;;;;7.13;2.70;;;;;;;14.88;82.53;96687.41;5008634;28;20037;-63
2021/08/28 07:25:38;;;;;;;6.63;2.90;;;;;;;14.97;82.59;96677.94;5012047;28;20045;-64
2021/08/28 07:28:05;;;;;;;9.27;3.20;;;;;;;15.05;81.82;96682.25;5002857;28;20526;-62
2021/08/28 07:30:30;;;;;;;8.35;2.88;;;;;;;15.03;81.29;96682.63;5005395;28;20736;-63
2021/08/28 07:32:56;;;;;;;7.10;3.10;;;;;;;15.00;81.62;96675.19;5004657;28;20048;-62
2021/08/28 07:35:21;;;;;;;5.47;2.63;;;;;;;15.14;81.19;96676.31;5002572;28;20560;-63
2021/08/28 07:37:47;;;;;;;5.90;2.90;;;;;;;15.21;80.18;96677.09;5014943;28;20363;-63
2021/08/28 07:40:12;;;;;;;6.82;3.38;;;;;;;15.38;80.78;96681.00;5000592;28;20042;-64
2021/08/28 07:42:38;;;;;;;8.20;3.83;;;;;;;15.27;81.38;96683.00;5015861;28;20046;-63
2021/08/28 07:45:04;;;;;;;6.43;2.50;;;;;;;15.67;79.67;96678.16;5007827;28;20519;-62
2021/08/28 07:47:29;;;;;;;3.67;2.67;;;;;;;15.88;79.35;96682.03;5023898;28;20049;-63
2021/08/28 07:49:54;;;;;;;3.95;2.20;;;;;;;15.96;77.77;96678.81;5013477;28;20057;-63
2021/08/28 07:52:20;;;;;;;6.20;2.35;;;;;;;16.16;76.70;96683.84;5008731;28;20046;-62
2021/08/28 07:54:46;;;;;;;4.65;2.38;;;;;;;16.27;75.91;96670.75;5006616;28;20038;-60
2021/08/28 07:57:11;;;;;;;5.57;2.25;;;;;;;16.15;75.62;96687.78;5004637;28;20131;-61
2021/08/28 07:59:37;;;;;;;4.60;2.13;;;;;;;16.29;75.27;96678.63;5001451;28;20421;-62
2021/08/28 08:02:02;;;;;;;2.97;1.95;;;;;;;16.44;74.23;96677.38;4999214;28;20045;-63
2021/08/28 08:04:28;;;;;;;5.60;1.98;;;;;;;16.54;71.15;96681.22;4998703;28;20534;-60
2021/08/28 08:06:53;;;;;;;4.90;1.85;;;;;;;16.65;71.75;96683.91;5010637;28;20136;-62
2021/08/28 08:09:19;;;;;;;8.35;2.10;;;;;;;16.32;73.49;96686.13;5006326;28;20060;-62
2021/08/28 08:11:44;;;;;;;4.70;2.03;;;;;;;16.49;70.84;96687.97;5011009;28;20529;-62
2021/08/28 08:14:12;;;;;;;7.55;1.95;;;;;;;16.59;69.60;96686.31;4993066;28;20034;-61
2021/08/28 08:16:37;;;;;;;4.82;1.70;;;;;;;16.88;68.64;96689.66;5002701;28;20038;-64
2021/08/28 08:19:03;;;;;;;3.10;1.70;;;;;;;17.30;66.86;96684.91;4999736;28;20038;-63
2021/08/28 08:21:29;;;;;;;3.35;1.70;;;;;;;17.70;66.08;96674.19;5003348;28;20045;-64
2021/08/28 08:23:54;;;;;;;6.05;1.50;;;;;;;17.48;66.30;96678.41;4998668;28;20515;-63
2021/08/28 08:26:20;;;;;;;4.30;1.70;;;;;;;17.33;65.34;96673.03;5001161;28;20045;-63
2021/08/28 08:28:45;;;;;;;2.35;1.30;;;;;;;17.69;63.66;96678.16;5013208;28;20711;-62
2021/08/28 08:31:11;;;;;;;5.43;1.48;;;;;;;17.92;62.61;96671.19;5004140;28;20053;-63
2021/08/28 08:33:37;;;;;;;2.60;0.98;;;;;;;18.14;61.74;96672.44;4994794;28;20042;-63
2021/08/28 08:36:03;;;;;;;3.08;1.35;;;;;;;18.42;60.37;96678.81;5000384;28;20061;-63
2021/08/28 08:38:29;;;;;;;3.30;1.45;;;;;;;18.22;59.82;96680.66;5013988;28;20132;-64
2021/08/28 08:40:55;;;;;;;3.88;1.50;;;;;;;17.96;60.93;96680.22;5002406;28;20133;-64
2021/08/28 08:43:20;;;;;;;1.77;1.00;;;;;;;19.14;57.54;96683.22;4996613;28;20045;-64
2021/08/28 08:45:46;;;;;;;5.00;1.50;;;;;;;19.91;56.05;96677.78;5013050;28;20501;-64
2021/08/28 08:48:14;;;;;;;4.68;1.27;;;;;;;19.56;55.87;96675.28;4993315;28;20050;-64
2021/08/28 08:50:40;;;;;;;3.97;1.42;;;;;;;19.96;54.37;96674.50;5006320;28;20050;-65
2021/08/28 08:53:07;;;;;;;6.60;1.67;;;;;;;18.79;56.62;96674.25;4993243;28;20041;-63
2021/08/28 08:55:33;;;;;;;2.03;1.20;;;;;;;18.70;57.05;96677.56;5012694;28;20064;-65
2021/08/28 08:57:59;;;;;;;3.15;1.58;;;;;;;20.44;53.21;96667.50;5019712;28;20044;-65
2021/08/28 09:00:25;;;;;;;3.45;1.58;;;;;;;20.15;52.68;96665.38;5001807;28;20088;-65
2021/08/28 09:02:51;;;;;;;7.07;1.30;;;;;;;20.29;52.59;96660.69;5016572;28;20111;-65
2021/08/28 09:05:17;;;;;;;3.58;1.48;;;;;;;20.20;53.11;96675.97;5004598;28;20065;-65
2021/08/28 09:07:43;;;;;;;3.38;1.10;;;;;;;19.52;56.21;96679.34;5001864;28;20085;-65
2021/08/28 09:10:09;;;;;;;3.75;1.20;;;;;;;19.36;56.80;96677.28;4994304;28;20042;-64
2021/08/28 09:12:39;;;;;;;2.75;1.00;;;;;;;18.06;60.20;96678.50;4993827;28;20652;-64
2021/08/28 09:15:08;;;;;;;2.58;1.30;;;;;;;18.05;61.74;96672.19;5001454;28;20060;-64
2021/08/28 09:17:34;;;;;;;3.37;1.30;;;;;;;17.80;62.39;96671.72;5021690;28;20072;-64
2021/08/28 09:20:01;;;;;;;5.47;2.55;;;;;;;17.84;62.78;96684.28;5018335;28;20356;-65
2021/08/28 09:22:33;;;;;;;6.10;1.40;;;;;;;18.14;62.34;96686.31;5016998;28;20048;-63
2021/08/28 09:25:05;;;;;;;4.43;1.80;;;;;;;18.08;62.98;96712.94;5021830;28;20429;-64
2021/08/28 09:27:42;;;;;;;1.48;0.77;;;;;;;16.93;65.04;96711.38;5008633;28;20045;-64
2021/08/28 09:30:13;;;;;;;1.67;0.63;;;;;;;16.16;68.55;96714.25;5006724;28;20049;-64
2021/08/28 09:32:45;;;;;;;5.10;1.75;;;;;;;15.62;74.91;96723.50;5005574;28;20045;-64
2021/08/28 09:35:10;;;;;;;7.07;1.05;;;;;;;15.16;77.03;96727.19;5015823;28;20042;-61
2021/08/28 09:37:36;;;;;;;5.93;0.90;;;;;;;14.85;79.29;96735.06;5014203;28;20421;-64
2021/08/28 09:40:04;;;;;;;2.92;0.95;;;;;;;14.64;81.48;96727.56;5012858;28;20517;-63
2021/08/28 09:42:30;;;;;;;3.50;0.90;;;;;;;14.51;83.60;96720.81;5009966;28;20753;-63
2021/08/28 09:44:56;;;;;;;3.28;1.40;;;;;;;14.54;86.05;96726.34;5008434;28;20057;-63
2021/08/28 09:47:30;;;;;;;3.10;1.20;;;;;;;14.62;86.34;96723.63;5014597;28;20037;-63
2021/08/28 09:49:56;;;;;;;2.53;1.08;;;;;;;14.69;86.00;96724.44;5003005;28;20382;-63
2021/08/28 09:52:25;;;;;;;2.45;1.20;;;;;;;14.58;84.01;96714.56;5014988;28;20099;-62
2021/08/28 09:54:52;;;;;;;5.45;1.05;;;;;;;14.38;86.76;96714.13;5019055;28;20144;-64
2021/08/28 09:57:18;;;;;;;5.18;1.98;;;;;;;13.80;90.11;96719.47;4981218;28;20489;-64
2021/08/28 09:59:44;;;;;;;2.33;1.08;;;;;;;13.71;89.64;96717.06;5004037;28;20045;-63
2021/08/28 10:02:14;;;;;;;3.95;1.50;;;;;;;14.42;88.20;96709.41;5003371;28;20483;-64
2021/08/28 10:04:56;;;;;;;2.67;1.25;;;;;;;14.95;84.42;96710.66;4963169;28;20054;-63
2021/08/28 10:07:30;;;;;;;3.15;1.25;;;;;;;15.56;82.21;96716.84;4975153;28;20039;-65
2021/08/28 10:09:57;;;;;;;5.88;3.50;;;;;;;15.89;80.61;96716.75;4978848;28;20108;-63
2021/08/28 10:12:23;;;;;;;1.42;0.98;;;;;;;16.28;77.85;96716.56;4977077;28;20508;-64
2021/08/28 10:14:51;;;;;;;1.83;0.93;;;;;;;16.69;75.17;96710.34;4990336;28;20041;-65
2021/08/28 10:17:18;;;;;;;1.95;0.98;;;;;;;17.11;74.68;96708.44;5003511;28;20038;-65
2021/08/28 10:19:47;;;;;;;1.10;0.80;;;;;;;17.22;70.77;96708.34;5020301;28;20065;-65
2021/08/28 10:22:14;;;;;;;3.47;1.00;;;;;;;17.13;73.91;96710.81;5012353;28;20056;-64
2021/08/28 10:24:43;;;;;;;1.98;0.90;;;;;;;17.15;72.98;96700.09;5005974;28;20109;-65
2021/08/28 10:27:09;;;;;;;;;;;;;;;17.11;74.49;96704.91;5010061;28;20033;-64
2021/08/28 10:29:36;;;;;;;2.47;1.17;;;;;;;16.72;78.36;96709.53;5018809;28;19921;-65
2021/08/28 10:32:03;;;;;;;2.83;1.25;;;;;;;16.52;77.03;96697.44;5011372;28;20081;-64
2021/08/28 10:34:29;;;;;;;2.45;1.38;;;;;;;17.11;72.85;96696.59;5001102;28;20053;-64
2021/08/28 10:36:55;;;;;;;4.28;1.13;;;;;;;17.66;72.20;96689.28;5010852;28;20422;-64
2021/08/28 10:39:20;;;;;;;2.55;1.10;;;;;;;17.84;73.07;96695.38;4997179;28;20045;-64
2021/08/28 10:41:47;;;;;;;1.20;0.88;;;;;;;17.84;67.64;96692.59;5000385;28;20414;-64
2021/08/28 10:44:12;;;;;;;3.75;1.50;;;;;;;17.92;69.49;96685.81;4988982;28;20459;-63
2021/08/28 10:46:41;;;;;;;1.88;1.00;;;;;;;17.91;72.23;96689.00;5008815;28;20080;-64
2021/08/28 10:49:09;;;;;;;1.85;0.80;;;;;;;18.15;67.10;96681.56;4995930;28;20034;-63
2021/08/28 10:51:36;;;;;;;2.17;0.98;;;;;;;18.56;68.97;96677.78;4997608;28;20413;-62
2021/08/28 10:54:12;;;;;;;8.30;3.08;;;;;;;19.33;63.84;96676.13;5000894;28;20041;-62
2021/08/28 10:56:49;;;;;;;1.73;0.90;;;;;;;20.32;60.03;96668.16;4998133;28;20037;-64
2021/08/28 10:59:31;;;;;;;2.80;1.15;;;;;;;20.28;60.40;96679.38;4994266;28;20128;-64
2021/08/28 11:02:09;;;;;;;1.90;0.95;;;;;;;20.24;60.17;96678.69;5001047;28;20491;-63
2021/08/28 11:04:37;;;;;;;3.15;1.27;;;;;;;19.35;63.03;96693.13;4988240;28;20049;-66
2021/08/28 11:07:25;;;;;;;7.78;2.25;;;;;;;18.60;71.94;96703.50;5007078;28;20552;-61
2021/08/28 11:10:13;;;;;;;3.67;1.75;;;;;;;17.74;76.13;96705.41;5017436;28;20111;-63
2021/08/28 11:12:42;;;;;;;3.25;1.85;;;;;;;17.15;75.88;96702.88;5006562;28;20125;-62
2021/08/28 11:15:27;;;;;;;6.05;2.08;;;;;;;16.88;76.31;96711.81;4987038;28;20042;-60
2021/08/28 11:17:53;;;;;;;3.92;1.83;;;;;;;16.54;77.89;96711.63;4997678;28;20044;-64
2021/08/28 11:20:25;;;;;;;5.07;1.95;;;;;;;16.30;80.29;96705.88;4990802;28;20038;-64
2021/08/28 11:22:51;;;;;;;4.32;2.83;;;;;;;15.86;83.13;96707.28;4999524;28;20053;-63
2021/08/28 11:25:20;;;;;;;8.18;3.38;;;;;;;15.72;84.95;96704.53;4994362;23;20046;-62
2021/08/28 11:27:47;;;;;;;7.88;3.55;;;;;;;15.45;89.35;96694.00;4960609;28;20046;-62
2021/08/28 11:30:16;;;;;;;5.45;2.97;;;;;;;15.33;91.14;96700.72;4968353;28;20047;-67
2021/08/28 11:32:59;;;;;;;5.88;2.22;;;;;;;15.30;89.35;96698.75;4978199;28;20102;-64
2021/08/28 11:35:32;;;;;;;10.23;3.03;;;;;;;15.51;90.17;96697.13;4970605;28;20172;-62